sensor_id;sensor_type;location;lat;lon;timestamp;P1;durP1;ratioP1;P2;durP2;ratioP2
7074;SDS011;3578;51.568;6.932;2023-04-09T00:01:36;38.70;;;27.33;;
7074;SDS011;3578;51.568;6.932;2023-04-09T00:04:03;39.80;;;28.93;;
7074;SDS011;3578;51.568;6.932;2023-04-09T00:06:30;49.63;;;28.57;;
7074;SDS011;3578;51.568;6.932;2023-04-09T00:08:58;40.77;;;28.40;;
7074;SDS011;3578;51.568;6.932;2023-04-09T00:11:25;35.30;;;27.07;;
7074;SDS011;3578;51.568;6.932;2023-04-09T00:13:52;37.00;;;28.90;;
7074;SDS011;3578;51.568;6.932;2023-04-09T00:16:19;36.60;;;27.83;;
7074;SDS011;3578;51.568;6.932;2023-04-09T00:18:46;38.23;;;28.00;;
7074;SDS011;3578;51.568;6.932;2023-04-09T00:21:13;33.73;;;27.27;;
7074;SDS011;3578;51.568;6.932;2023-04-09T00:23:41;29.37;;;25.97;;
7074;SDS011;3578;51.568;6.932;2023-04-09T00:26:09;35.83;;;29.20;;
7074;SDS011;3578;51.568;6.932;2023-04-09T00:28:36;36.50;;;28.50;;
7074;SDS011;3578;51.568;6.932;2023-04-09T00:31:04;32.30;;;27.40;;
7074;SDS011;3578;51.568;6.932;2023-04-09T00:33:31;38.47;;;29.07;;
7074;SDS011;3578;51.568;6.932;2023-04-09T00:35:58;38.77;;;30.67;;
7074;SDS011;3578;51.568;6.932;2023-04-09T00:38:25;39.10;;;29.47;;
7074;SDS011;3578;51.568;6.932;2023-04-09T00:40:52;34.93;;;29.40;;
7074;SDS011;3578;51.568;6.932;2023-04-09T00:43:20;50.20;;;30.93;;
7074;SDS011;3578;51.568;6.932;2023-04-09T00:45:47;40.60;;;28.73;;
7074;SDS011;3578;51.568;6.932;2023-04-09T00:48:14;51.53;;;31.20;;
7074;SDS011;3578;51.568;6.932;2023-04-09T00:50:42;49.00;;;30.90;;
7074;SDS011;3578;51.568;6.932;2023-04-09T00:53:09;52.13;;;33.50;;
7074;SDS011;3578;51.568;6.932;2023-04-09T00:55:38;56.00;;;34.87;;
7074;SDS011;3578;51.568;6.932;2023-04-09T00:58:06;45.20;;;32.27;;
7074;SDS011;3578;51.568;6.932;2023-04-09T01:00:34;46.47;;;31.60;;
7074;SDS011;3578;51.568;6.932;2023-04-09T01:03:01;46.07;;;30.57;;
7074;SDS011;3578;51.568;6.932;2023-04-09T01:05:33;48.47;;;31.50;;
7074;SDS011;3578;51.568;6.932;2023-04-09T01:08:11;45.50;;;31.23;;
7074;SDS011;3578;51.568;6.932;2023-04-09T01:10:52;50.17;;;31.77;;
7074;SDS011;3578;51.568;6.932;2023-04-09T01:13:29;47.07;;;30.90;;
7074;SDS011;3578;51.568;6.932;2023-04-09T01:16:09;61.30;;;30.53;;
7074;SDS011;3578;51.568;6.932;2023-04-09T01:18:39;58.30;;;31.77;;
7074;SDS011;3578;51.568;6.932;2023-04-09T01:21:15;39.47;;;28.57;;
7074;SDS011;3578;51.568;6.932;2023-04-09T01:23:46;44.70;;;29.77;;
7074;SDS011;3578;51.568;6.932;2023-04-09T01:26:26;67.30;;;29.47;;
7074;SDS011;3578;51.568;6.932;2023-04-09T01:29:07;57.17;;;28.00;;
7074;SDS011;3578;51.568;6.932;2023-04-09T01:31:36;46.27;;;26.10;;
7074;SDS011;3578;51.568;6.932;2023-04-09T01:34:07;47.43;;;28.23;;
7074;SDS011;3578;51.568;6.932;2023-04-09T01:36:35;40.50;;;26.97;;
7074;SDS011;3578;51.568;6.932;2023-04-09T01:39:05;51.77;;;28.27;;
7074;SDS011;3578;51.568;6.932;2023-04-09T01:41:33;69.97;;;29.43;;
7074;SDS011;3578;51.568;6.932;2023-04-09T01:44:02;43.30;;;27.70;;
7074;SDS011;3578;51.568;6.932;2023-04-09T01:46:32;43.30;;;30.00;;
7074;SDS011;3578;51.568;6.932;2023-04-09T01:49:00;38.83;;;27.57;;
7074;SDS011;3578;51.568;6.932;2023-04-09T01:51:28;52.77;;;28.50;;
7074;SDS011;3578;51.568;6.932;2023-04-09T01:53:56;48.37;;;27.70;;
7074;SDS011;3578;51.568;6.932;2023-04-09T01:56:23;54.80;;;27.23;;
7074;SDS011;3578;51.568;6.932;2023-04-09T01:58:51;61.70;;;30.57;;
7074;SDS011;3578;51.568;6.932;2023-04-09T02:01:19;50.30;;;28.23;;
7074;SDS011;3578;51.568;6.932;2023-04-09T02:03:55;44.27;;;27.67;;
7074;SDS011;3578;51.568;6.932;2023-04-09T02:06:28;46.57;;;28.40;;
7074;SDS011;3578;51.568;6.932;2023-04-09T02:09:03;42.23;;;27.87;;
7074;SDS011;3578;51.568;6.932;2023-04-09T02:11:34;46.90;;;28.17;;
7074;SDS011;3578;51.568;6.932;2023-04-09T02:14:05;73.03;;;29.73;;
7074;SDS011;3578;51.568;6.932;2023-04-09T02:16:33;58.77;;;30.20;;
7074;SDS011;3578;51.568;6.932;2023-04-09T02:19:02;58.27;;;28.77;;
7074;SDS011;3578;51.568;6.932;2023-04-09T02:21:29;75.63;;;31.63;;
7074;SDS011;3578;51.568;6.932;2023-04-09T02:23:56;47.53;;;28.17;;
7074;SDS011;3578;51.568;6.932;2023-04-09T02:26:23;48.20;;;28.53;;
7074;SDS011;3578;51.568;6.932;2023-04-09T02:28:51;54.97;;;29.63;;
7074;SDS011;3578;51.568;6.932;2023-04-09T02:31:18;50.13;;;28.53;;
7074;SDS011;3578;51.568;6.932;2023-04-09T02:33:44;39.63;;;26.30;;
7074;SDS011;3578;51.568;6.932;2023-04-09T02:36:13;46.93;;;29.73;;
7074;SDS011;3578;51.568;6.932;2023-04-09T02:38:40;54.80;;;28.40;;
7074;SDS011;3578;51.568;6.932;2023-04-09T02:41:07;45.57;;;29.50;;
7074;SDS011;3578;51.568;6.932;2023-04-09T02:43:35;62.97;;;30.40;;
7074;SDS011;3578;51.568;6.932;2023-04-09T02:46:02;57.03;;;29.13;;
7074;SDS011;3578;51.568;6.932;2023-04-09T02:48:29;78.87;;;31.33;;
7074;SDS011;3578;51.568;6.932;2023-04-09T02:50:56;67.10;;;31.00;;
7074;SDS011;3578;51.568;6.932;2023-04-09T02:53:24;56.50;;;31.43;;
7074;SDS011;3578;51.568;6.932;2023-04-09T02:55:51;54.83;;;30.00;;
7074;SDS011;3578;51.568;6.932;2023-04-09T02:58:18;43.77;;;29.60;;
7074;SDS011;3578;51.568;6.932;2023-04-09T03:00:45;64.67;;;32.43;;
7074;SDS011;3578;51.568;6.932;2023-04-09T03:03:12;54.10;;;30.13;;
7074;SDS011;3578;51.568;6.932;2023-04-09T03:05:39;52.53;;;30.80;;
7074;SDS011;3578;51.568;6.932;2023-04-09T03:08:06;48.87;;;32.67;;
7074;SDS011;3578;51.568;6.932;2023-04-09T03:10:34;61.47;;;30.53;;
7074;SDS011;3578;51.568;6.932;2023-04-09T03:13:01;51.47;;;31.40;;
7074;SDS011;3578;51.568;6.932;2023-04-09T03:15:28;44.00;;;31.03;;
7074;SDS011;3578;51.568;6.932;2023-04-09T03:17:55;48.20;;;30.00;;
7074;SDS011;3578;51.568;6.932;2023-04-09T03:20:22;43.90;;;30.43;;
7074;SDS011;3578;51.568;6.932;2023-04-09T03:22:49;46.70;;;30.93;;
7074;SDS011;3578;51.568;6.932;2023-04-09T03:25:16;61.80;;;31.50;;
7074;SDS011;3578;51.568;6.932;2023-04-09T03:27:46;43.27;;;31.37;;
7074;SDS011;3578;51.568;6.932;2023-04-09T03:30:13;51.13;;;31.10;;
7074;SDS011;3578;51.568;6.932;2023-04-09T03:32:40;45.37;;;30.03;;
7074;SDS011;3578;51.568;6.932;2023-04-09T03:35:07;47.73;;;32.80;;
7074;SDS011;3578;51.568;6.932;2023-04-09T03:37:34;43.90;;;32.90;;
7074;SDS011;3578;51.568;6.932;2023-04-09T03:40:01;51.93;;;32.60;;
7074;SDS011;3578;51.568;6.932;2023-04-09T03:42:28;47.63;;;34.20;;
7074;SDS011;3578;51.568;6.932;2023-04-09T03:44:57;52.87;;;33.73;;
7074;SDS011;3578;51.568;6.932;2023-04-09T03:47:24;48.63;;;32.40;;
7074;SDS011;3578;51.568;6.932;2023-04-09T03:49:51;48.27;;;31.93;;
7074;SDS011;3578;51.568;6.932;2023-04-09T03:52:18;47.77;;;32.50;;
7074;SDS011;3578;51.568;6.932;2023-04-09T03:54:45;52.23;;;31.13;;
7074;SDS011;3578;51.568;6.932;2023-04-09T03:57:12;51.53;;;34.90;;
7074;SDS011;3578;51.568;6.932;2023-04-09T03:59:39;49.63;;;30.80;;
7074;SDS011;3578;51.568;6.932;2023-04-09T04:02:07;51.73;;;34.00;;
7074;SDS011;3578;51.568;6.932;2023-04-09T04:04:34;57.43;;;36.00;;
7074;SDS011;3578;51.568;6.932;2023-04-09T04:07:01;56.60;;;33.90;;
7074;SDS011;3578;51.568;6.932;2023-04-09T04:09:28;50.07;;;30.43;;
7074;SDS011;3578;51.568;6.932;2023-04-09T04:11:55;44.20;;;29.43;;
7074;SDS011;3578;51.568;6.932;2023-04-09T04:14:22;50.17;;;31.33;;
7074;SDS011;3578;51.568;6.932;2023-04-09T04:16:49;49.13;;;32.00;;
7074;SDS011;3578;51.568;6.932;2023-04-09T04:19:18;34.67;;;26.67;;
7074;SDS011;3578;51.568;6.932;2023-04-09T04:21:45;31.90;;;24.90;;
7074;SDS011;3578;51.568;6.932;2023-04-09T04:24:12;34.77;;;25.53;;
7074;SDS011;3578;51.568;6.932;2023-04-09T04:26:38;36.17;;;28.10;;
7074;SDS011;3578;51.568;6.932;2023-04-09T04:29:05;35.93;;;27.30;;
7074;SDS011;3578;51.568;6.932;2023-04-09T04:31:32;33.73;;;26.30;;
7074;SDS011;3578;51.568;6.932;2023-04-09T04:33:59;37.77;;;28.70;;
7074;SDS011;3578;51.568;6.932;2023-04-09T04:36:28;35.07;;;25.47;;
7074;SDS011;3578;51.568;6.932;2023-04-09T04:38:55;40.70;;;26.20;;
7074;SDS011;3578;51.568;6.932;2023-04-09T04:41:22;33.13;;;25.33;;
7074;SDS011;3578;51.568;6.932;2023-04-09T04:43:49;38.63;;;27.43;;
7074;SDS011;3578;51.568;6.932;2023-04-09T04:46:16;38.50;;;26.03;;
7074;SDS011;3578;51.568;6.932;2023-04-09T04:48:44;36.57;;;26.50;;
7074;SDS011;3578;51.568;6.932;2023-04-09T04:51:11;42.00;;;28.33;;
7074;SDS011;3578;51.568;6.932;2023-04-09T04:53:39;36.20;;;25.20;;
7074;SDS011;3578;51.568;6.932;2023-04-09T04:56:11;41.33;;;27.27;;
7074;SDS011;3578;51.568;6.932;2023-04-09T04:58:39;36.80;;;26.77;;
7074;SDS011;3578;51.568;6.932;2023-04-09T05:01:06;39.47;;;27.17;;
7074;SDS011;3578;51.568;6.932;2023-04-09T05:03:33;35.47;;;25.97;;
7074;SDS011;3578;51.568;6.932;2023-04-09T05:06:00;42.37;;;26.93;;
7074;SDS011;3578;51.568;6.932;2023-04-09T05:08:28;37.33;;;25.97;;
7074;SDS011;3578;51.568;6.932;2023-04-09T05:10:57;39.57;;;26.80;;
7074;SDS011;3578;51.568;6.932;2023-04-09T05:13:24;37.50;;;27.60;;
7074;SDS011;3578;51.568;6.932;2023-04-09T05:15:51;45.83;;;27.53;;
7074;SDS011;3578;51.568;6.932;2023-04-09T05:18:17;38.10;;;28.77;;
7074;SDS011;3578;51.568;6.932;2023-04-09T05:20:45;42.57;;;26.80;;
7074;SDS011;3578;51.568;6.932;2023-04-09T05:23:12;34.63;;;25.70;;
7074;SDS011;3578;51.568;6.932;2023-04-09T05:25:39;36.07;;;26.20;;
7074;SDS011;3578;51.568;6.932;2023-04-09T05:28:08;36.63;;;25.10;;
7074;SDS011;3578;51.568;6.932;2023-04-09T05:30:36;33.93;;;26.07;;
7074;SDS011;3578;51.568;6.932;2023-04-09T05:33:03;30.80;;;24.83;;
7074;SDS011;3578;51.568;6.932;2023-04-09T05:35:30;33.97;;;25.43;;
7074;SDS011;3578;51.568;6.932;2023-04-09T05:37:57;31.90;;;25.73;;
7074;SDS011;3578;51.568;6.932;2023-04-09T05:40:23;34.80;;;27.17;;
7074;SDS011;3578;51.568;6.932;2023-04-09T05:42:50;31.80;;;24.33;;
7074;SDS011;3578;51.568;6.932;2023-04-09T05:45:19;39.60;;;25.10;;
7074;SDS011;3578;51.568;6.932;2023-04-09T05:47:46;33.27;;;24.90;;
7074;SDS011;3578;51.568;6.932;2023-04-09T05:50:13;32.53;;;24.70;;
7074;SDS011;3578;51.568;6.932;2023-04-09T05:52:40;29.93;;;23.33;;
7074;SDS011;3578;51.568;6.932;2023-04-09T05:55:07;29.63;;;22.67;;
7074;SDS011;3578;51.568;6.932;2023-04-09T05:57:34;26.03;;;22.53;;
7074;SDS011;3578;51.568;6.932;2023-04-09T06:00:01;32.23;;;25.07;;
7074;SDS011;3578;51.568;6.932;2023-04-09T06:02:30;31.93;;;24.50;;
7074;SDS011;3578;51.568;6.932;2023-04-09T06:04:57;28.57;;;23.77;;
7074;SDS011;3578;51.568;6.932;2023-04-09T06:07:24;25.50;;;21.30;;
7074;SDS011;3578;51.568;6.932;2023-04-09T06:09:51;22.80;;;19.97;;
7074;SDS011;3578;51.568;6.932;2023-04-09T06:12:20;26.63;;;22.07;;
7074;SDS011;3578;51.568;6.932;2023-04-09T06:14:47;28.70;;;24.00;;
7074;SDS011;3578;51.568;6.932;2023-04-09T06:17:14;29.93;;;25.03;;
7074;SDS011;3578;51.568;6.932;2023-04-09T06:19:42;35.40;;;28.93;;
7074;SDS011;3578;51.568;6.932;2023-04-09T06:22:09;34.73;;;27.33;;
7074;SDS011;3578;51.568;6.932;2023-04-09T06:24:37;37.20;;;28.27;;
7074;SDS011;3578;51.568;6.932;2023-04-09T06:27:04;35.30;;;25.73;;
7074;SDS011;3578;51.568;6.932;2023-04-09T06:29:31;32.73;;;25.70;;
7074;SDS011;3578;51.568;6.932;2023-04-09T06:31:59;30.27;;;24.13;;
7074;SDS011;3578;51.568;6.932;2023-04-09T06:34:26;37.83;;;25.63;;
7074;SDS011;3578;51.568;6.932;2023-04-09T06:36:54;30.20;;;25.50;;
7074;SDS011;3578;51.568;6.932;2023-04-09T06:39:21;33.40;;;27.20;;
7074;SDS011;3578;51.568;6.932;2023-04-09T06:41:48;32.40;;;26.10;;
7074;SDS011;3578;51.568;6.932;2023-04-09T06:44:15;31.77;;;24.80;;
7074;SDS011;3578;51.568;6.932;2023-04-09T06:46:43;30.73;;;24.97;;
7074;SDS011;3578;51.568;6.932;2023-04-09T06:49:10;29.63;;;23.93;;
7074;SDS011;3578;51.568;6.932;2023-04-09T06:51:37;33.40;;;23.77;;
7074;SDS011;3578;51.568;6.932;2023-04-09T06:54:06;33.00;;;25.67;;
7074;SDS011;3578;51.568;6.932;2023-04-09T06:56:33;30.33;;;23.57;;
7074;SDS011;3578;51.568;6.932;2023-04-09T06:59:00;30.73;;;22.83;;
7074;SDS011;3578;51.568;6.932;2023-04-09T07:01:27;32.03;;;24.10;;
7074;SDS011;3578;51.568;6.932;2023-04-09T07:03:54;31.23;;;23.60;;
7074;SDS011;3578;51.568;6.932;2023-04-09T07:06:21;30.60;;;22.43;;
7074;SDS011;3578;51.568;6.932;2023-04-09T07:08:48;26.87;;;21.10;;
7074;SDS011;3578;51.568;6.932;2023-04-09T07:11:16;25.70;;;19.43;;
7074;SDS011;3578;51.568;6.932;2023-04-09T07:13:43;23.93;;;19.57;;
7074;SDS011;3578;51.568;6.932;2023-04-09T07:16:10;23.53;;;20.40;;
7074;SDS011;3578;51.568;6.932;2023-04-09T07:18:37;24.10;;;18.77;;
7074;SDS011;3578;51.568;6.932;2023-04-09T07:21:04;26.47;;;20.33;;
7074;SDS011;3578;51.568;6.932;2023-04-09T07:23:33;24.53;;;19.63;;
7074;SDS011;3578;51.568;6.932;2023-04-09T07:26:01;20.60;;;17.17;;
7074;SDS011;3578;51.568;6.932;2023-04-09T07:28:30;21.50;;;17.07;;
7074;SDS011;3578;51.568;6.932;2023-04-09T07:30:59;24.00;;;17.77;;
7074;SDS011;3578;51.568;6.932;2023-04-09T07:33:26;19.47;;;14.63;;
7074;SDS011;3578;51.568;6.932;2023-04-09T07:35:53;21.13;;;16.83;;
7074;SDS011;3578;51.568;6.932;2023-04-09T07:38:20;19.20;;;15.77;;
7074;SDS011;3578;51.568;6.932;2023-04-09T07:40:47;19.80;;;15.23;;
7074;SDS011;3578;51.568;6.932;2023-04-09T07:43:15;21.53;;;15.20;;
7074;SDS011;3578;51.568;6.932;2023-04-09T07:45:43;18.00;;;15.93;;
7074;SDS011;3578;51.568;6.932;2023-04-09T07:48:10;18.73;;;15.77;;
7074;SDS011;3578;51.568;6.932;2023-04-09T07:50:37;19.13;;;15.90;;
7074;SDS011;3578;51.568;6.932;2023-04-09T07:53:04;19.70;;;16.43;;
7074;SDS011;3578;51.568;6.932;2023-04-09T07:55:31;20.10;;;16.57;;
7074;SDS011;3578;51.568;6.932;2023-04-09T07:57:58;18.40;;;16.40;;
7074;SDS011;3578;51.568;6.932;2023-04-09T08:00:25;18.63;;;16.57;;
7074;SDS011;3578;51.568;6.932;2023-04-09T08:02:53;17.30;;;15.07;;
7074;SDS011;3578;51.568;6.932;2023-04-09T08:05:21;21.83;;;14.90;;
7074;SDS011;3578;51.568;6.932;2023-04-09T08:07:49;17.83;;;14.77;;
7074;SDS011;3578;51.568;6.932;2023-04-09T08:10:16;16.80;;;14.40;;
7074;SDS011;3578;51.568;6.932;2023-04-09T08:12:43;20.37;;;16.07;;
7074;SDS011;3578;51.568;6.932;2023-04-09T08:15:10;19.50;;;16.30;;
7074;SDS011;3578;51.568;6.932;2023-04-09T08:17:37;18.03;;;16.17;;
7074;SDS011;3578;51.568;6.932;2023-04-09T08:20:06;17.97;;;15.70;;
7074;SDS011;3578;51.568;6.932;2023-04-09T08:22:34;17.23;;;15.43;;
7074;SDS011;3578;51.568;6.932;2023-04-09T08:25:01;19.00;;;14.70;;
7074;SDS011;3578;51.568;6.932;2023-04-09T08:27:28;18.00;;;14.70;;
7074;SDS011;3578;51.568;6.932;2023-04-09T08:29:56;18.70;;;15.37;;
7074;SDS011;3578;51.568;6.932;2023-04-09T08:32:23;18.23;;;15.07;;
7074;SDS011;3578;51.568;6.932;2023-04-09T08:34:51;18.50;;;15.13;;
7074;SDS011;3578;51.568;6.932;2023-04-09T08:37:19;15.40;;;13.80;;
7074;SDS011;3578;51.568;6.932;2023-04-09T08:39:46;13.83;;;12.43;;
7074;SDS011;3578;51.568;6.932;2023-04-09T08:42:13;13.80;;;12.10;;
7074;SDS011;3578;51.568;6.932;2023-04-09T08:44:41;13.90;;;12.40;;
7074;SDS011;3578;51.568;6.932;2023-04-09T08:47:08;15.20;;;12.70;;
7074;SDS011;3578;51.568;6.932;2023-04-09T08:49:37;15.20;;;13.60;;
7074;SDS011;3578;51.568;6.932;2023-04-09T08:52:05;15.93;;;13.17;;
7074;SDS011;3578;51.568;6.932;2023-04-09T08:54:34;16.97;;;13.97;;
7074;SDS011;3578;51.568;6.932;2023-04-09T08:57:03;17.67;;;13.97;;
7074;SDS011;3578;51.568;6.932;2023-04-09T08:59:31;18.97;;;12.67;;
7074;SDS011;3578;51.568;6.932;2023-04-09T09:02:07;11.80;;;10.60;;
7074;SDS011;3578;51.568;6.932;2023-04-09T09:04:44;15.07;;;12.73;;
7074;SDS011;3578;51.568;6.932;2023-04-09T09:07:12;21.17;;;12.40;;
7074;SDS011;3578;51.568;6.932;2023-04-09T09:09:51;11.60;;;10.40;;
7074;SDS011;3578;51.568;6.932;2023-04-09T09:12:30;15.53;;;11.40;;
7074;SDS011;3578;51.568;6.932;2023-04-09T09:14:58;12.93;;;11.50;;
7074;SDS011;3578;51.568;6.932;2023-04-09T09:17:25;14.50;;;12.00;;
7074;SDS011;3578;51.568;6.932;2023-04-09T09:19:52;13.17;;;11.00;;
7074;SDS011;3578;51.568;6.932;2023-04-09T09:22:19;12.63;;;10.03;;
7074;SDS011;3578;51.568;6.932;2023-04-09T09:24:47;13.63;;;10.60;;
7074;SDS011;3578;51.568;6.932;2023-04-09T09:30:00;12.33;;;10.50;;
7074;SDS011;3578;51.568;6.932;2023-04-09T09:32:29;13.00;;;10.90;;
7074;SDS011;3578;51.568;6.932;2023-04-09T09:34:57;11.03;;;9.90;;
7074;SDS011;3578;51.568;6.932;2023-04-09T09:37:27;10.70;;;9.60;;
7074;SDS011;3578;51.568;6.932;2023-04-09T09:39:55;10.47;;;9.37;;
7074;SDS011;3578;51.568;6.932;2023-04-09T09:42:22;9.60;;;8.60;;
7074;SDS011;3578;51.568;6.932;2023-04-09T09:44:52;9.27;;;8.37;;
7074;SDS011;3578;51.568;6.932;2023-04-09T09:47:20;8.00;;;7.30;;
7074;SDS011;3578;51.568;6.932;2023-04-09T09:49:49;9.20;;;8.30;;
7074;SDS011;3578;51.568;6.932;2023-04-09T09:52:24;8.90;;;8.10;;
7074;SDS011;3578;51.568;6.932;2023-04-09T09:54:51;8.57;;;7.73;;
7074;SDS011;3578;51.568;6.932;2023-04-09T09:57:20;9.00;;;8.10;;
7074;SDS011;3578;51.568;6.932;2023-04-09T09:59:50;9.17;;;8.23;;
7074;SDS011;3578;51.568;6.932;2023-04-09T10:02:24;10.50;;;8.20;;
7074;SDS011;3578;51.568;6.932;2023-04-09T10:04:58;9.10;;;7.83;;
7074;SDS011;3578;51.568;6.932;2023-04-09T10:07:27;8.57;;;7.70;;
7074;SDS011;3578;51.568;6.932;2023-04-09T10:09:55;9.37;;;7.50;;
7074;SDS011;3578;51.568;6.932;2023-04-09T10:12:25;11.23;;;7.07;;
7074;SDS011;3578;51.568;6.932;2023-04-09T10:14:54;8.47;;;7.60;;
7074;SDS011;3578;51.568;6.932;2023-04-09T10:17:21;8.77;;;7.87;;
7074;SDS011;3578;51.568;6.932;2023-04-09T10:19:50;8.40;;;7.60;;
7074;SDS011;3578;51.568;6.932;2023-04-09T10:22:25;7.80;;;6.90;;
7074;SDS011;3578;51.568;6.932;2023-04-09T10:24:55;9.33;;;8.53;;
7074;SDS011;3578;51.568;6.932;2023-04-09T10:27:24;8.27;;;7.50;;
7074;SDS011;3578;51.568;6.932;2023-04-09T10:29:53;7.17;;;6.47;;
7074;SDS011;3578;51.568;6.932;2023-04-09T10:32:21;7.93;;;7.23;;
7074;SDS011;3578;51.568;6.932;2023-04-09T10:34:50;8.57;;;7.23;;
7074;SDS011;3578;51.568;6.932;2023-04-09T10:37:22;12.60;;;7.90;;
7074;SDS011;3578;51.568;6.932;2023-04-09T10:39:50;13.30;;;7.90;;
7074;SDS011;3578;51.568;6.932;2023-04-09T10:42:18;7.27;;;6.57;;
7074;SDS011;3578;51.568;6.932;2023-04-09T10:47:34;7.00;;;6.30;;
7074;SDS011;3578;51.568;6.932;2023-04-09T10:52:52;7.00;;;6.40;;
7074;SDS011;3578;51.568;6.932;2023-04-09T10:55:34;6.20;;;5.70;;
7074;SDS011;3578;51.568;6.932;2023-04-09T10:58:03;6.50;;;5.90;;
7074;SDS011;3578;51.568;6.932;2023-04-09T11:00:32;6.00;;;5.50;;
7074;SDS011;3578;51.568;6.932;2023-04-09T11:03:07;5.70;;;5.20;;
7074;SDS011;3578;51.568;6.932;2023-04-09T11:05:46;6.83;;;5.50;;
7074;SDS011;3578;51.568;6.932;2023-04-09T11:08:16;7.93;;;7.13;;
7074;SDS011;3578;51.568;6.932;2023-04-09T11:10:44;8.70;;;6.57;;
7074;SDS011;3578;51.568;6.932;2023-04-09T11:13:11;8.87;;;7.03;;
7074;SDS011;3578;51.568;6.932;2023-04-09T11:15:42;8.00;;;7.30;;
7074;SDS011;3578;51.568;6.932;2023-04-09T11:18:12;7.80;;;7.00;;
7074;SDS011;3578;51.568;6.932;2023-04-09T11:20:40;7.07;;;6.40;;
7074;SDS011;3578;51.568;6.932;2023-04-09T11:23:07;6.80;;;6.10;;
7074;SDS011;3578;51.568;6.932;2023-04-09T11:25:39;8.50;;;7.70;;
7074;SDS011;3578;51.568;6.932;2023-04-09T11:28:06;7.87;;;7.07;;
7074;SDS011;3578;51.568;6.932;2023-04-09T11:30:33;6.87;;;6.20;;
7074;SDS011;3578;51.568;6.932;2023-04-09T11:33:02;7.80;;;7.10;;
7074;SDS011;3578;51.568;6.932;2023-04-09T11:35:32;11.50;;;6.57;;
7074;SDS011;3578;51.568;6.932;2023-04-09T11:38:04;6.73;;;6.03;;
7074;SDS011;3578;51.568;6.932;2023-04-09T11:40:32;6.90;;;6.30;;
7074;SDS011;3578;51.568;6.932;2023-04-09T11:42:59;6.97;;;6.27;;
7074;SDS011;3578;51.568;6.932;2023-04-09T11:45:27;7.30;;;6.70;;
7074;SDS011;3578;51.568;6.932;2023-04-09T11:47:56;6.80;;;6.20;;
7074;SDS011;3578;51.568;6.932;2023-04-09T11:50:25;6.30;;;5.77;;
7074;SDS011;3578;51.568;6.932;2023-04-09T11:52:52;7.20;;;6.60;;
7074;SDS011;3578;51.568;6.932;2023-04-09T11:55:23;7.43;;;6.83;;
7074;SDS011;3578;51.568;6.932;2023-04-09T11:57:52;7.00;;;6.33;;
7074;SDS011;3578;51.568;6.932;2023-04-09T12:00:22;7.40;;;6.40;;
7074;SDS011;3578;51.568;6.932;2023-04-09T12:02:51;9.70;;;7.27;;
7074;SDS011;3578;51.568;6.932;2023-04-09T12:05:28;7.13;;;6.43;;
7074;SDS011;3578;51.568;6.932;2023-04-09T12:07:57;6.57;;;5.97;;
7074;SDS011;3578;51.568;6.932;2023-04-09T12:10:26;6.70;;;6.00;;
7074;SDS011;3578;51.568;6.932;2023-04-09T12:12:54;6.27;;;5.70;;
7074;SDS011;3578;51.568;6.932;2023-04-09T12:15:25;7.53;;;5.50;;
7074;SDS011;3578;51.568;6.932;2023-04-09T12:17:58;6.90;;;6.30;;
7074;SDS011;3578;51.568;6.932;2023-04-09T12:20:26;7.03;;;6.23;;
7074;SDS011;3578;51.568;6.932;2023-04-09T12:22:56;7.20;;;6.60;;
7074;SDS011;3578;51.568;6.932;2023-04-09T12:25:25;7.87;;;6.30;;
7074;SDS011;3578;51.568;6.932;2023-04-09T12:27:54;7.53;;;6.83;;
7074;SDS011;3578;51.568;6.932;2023-04-09T12:30:21;7.13;;;6.57;;
7074;SDS011;3578;51.568;6.932;2023-04-09T12:32:48;8.40;;;6.87;;
7074;SDS011;3578;51.568;6.932;2023-04-09T12:35:15;7.40;;;6.50;;
7074;SDS011;3578;51.568;6.932;2023-04-09T12:37:44;7.63;;;6.93;;
7074;SDS011;3578;51.568;6.932;2023-04-09T12:40:11;6.60;;;6.00;;
7074;SDS011;3578;51.568;6.932;2023-04-09T12:42:39;7.13;;;6.53;;
7074;SDS011;3578;51.568;6.932;2023-04-09T12:45:06;7.10;;;6.47;;
7074;SDS011;3578;51.568;6.932;2023-04-09T12:47:35;6.70;;;6.07;;
7074;SDS011;3578;51.568;6.932;2023-04-09T12:50:04;7.30;;;6.70;;
7074;SDS011;3578;51.568;6.932;2023-04-09T12:52:33;8.33;;;7.57;;
7074;SDS011;3578;51.568;6.932;2023-04-09T12:55:02;6.90;;;6.20;;
7074;SDS011;3578;51.568;6.932;2023-04-09T12:57:30;7.33;;;6.67;;
7074;SDS011;3578;51.568;6.932;2023-04-09T12:59:58;7.70;;;7.00;;
7074;SDS011;3578;51.568;6.932;2023-04-09T13:02:25;7.30;;;6.70;;
7074;SDS011;3578;51.568;6.932;2023-04-09T13:04:52;6.73;;;6.13;;
7074;SDS011;3578;51.568;6.932;2023-04-09T13:07:19;7.60;;;6.90;;
7074;SDS011;3578;51.568;6.932;2023-04-09T13:09:46;6.80;;;6.20;;
7074;SDS011;3578;51.568;6.932;2023-04-09T13:12:15;7.53;;;6.80;;
7074;SDS011;3578;51.568;6.932;2023-04-09T13:14:45;6.83;;;6.23;;
7074;SDS011;3578;51.568;6.932;2023-04-09T13:17:13;9.50;;;7.27;;
7074;SDS011;3578;51.568;6.932;2023-04-09T13:19:40;9.57;;;6.77;;
7074;SDS011;3578;51.568;6.932;2023-04-09T13:22:07;6.90;;;5.90;;
7074;SDS011;3578;51.568;6.932;2023-04-09T13:24:34;8.00;;;6.20;;
7074;SDS011;3578;51.568;6.932;2023-04-09T13:27:01;7.50;;;6.73;;
7074;SDS011;3578;51.568;6.932;2023-04-09T13:29:31;6.77;;;6.27;;
7074;SDS011;3578;51.568;6.932;2023-04-09T13:31:58;6.80;;;6.23;;
7074;SDS011;3578;51.568;6.932;2023-04-09T13:34:26;7.53;;;6.20;;
7074;SDS011;3578;51.568;6.932;2023-04-09T13:36:53;7.20;;;6.50;;
7074;SDS011;3578;51.568;6.932;2023-04-09T13:39:20;7.27;;;6.60;;
7074;SDS011;3578;51.568;6.932;2023-04-09T13:41:47;7.20;;;6.20;;
7074;SDS011;3578;51.568;6.932;2023-04-09T13:44:14;6.70;;;6.10;;
7074;SDS011;3578;51.568;6.932;2023-04-09T13:46:43;7.13;;;6.53;;
7074;SDS011;3578;51.568;6.932;2023-04-09T13:49:09;6.67;;;6.10;;
7074;SDS011;3578;51.568;6.932;2023-04-09T13:51:37;7.00;;;6.40;;
7074;SDS011;3578;51.568;6.932;2023-04-09T13:54:04;8.03;;;6.97;;
7074;SDS011;3578;51.568;6.932;2023-04-09T13:56:32;7.37;;;6.77;;
7074;SDS011;3578;51.568;6.932;2023-04-09T13:58:59;5.90;;;5.30;;
7074;SDS011;3578;51.568;6.932;2023-04-09T14:01:26;6.67;;;6.10;;
7074;SDS011;3578;51.568;6.932;2023-04-09T14:03:54;6.53;;;5.93;;
7074;SDS011;3578;51.568;6.932;2023-04-09T14:06:21;7.10;;;6.50;;
7074;SDS011;3578;51.568;6.932;2023-04-09T14:08:48;6.80;;;6.17;;
7074;SDS011;3578;51.568;6.932;2023-04-09T14:11:15;6.43;;;5.83;;
7074;SDS011;3578;51.568;6.932;2023-04-09T14:13:42;6.93;;;6.20;;
7074;SDS011;3578;51.568;6.932;2023-04-09T14:16:10;6.47;;;5.87;;
7074;SDS011;3578;51.568;6.932;2023-04-09T14:18:36;8.53;;;7.17;;
7074;SDS011;3578;51.568;6.932;2023-04-09T14:21:06;6.33;;;5.83;;
7074;SDS011;3578;51.568;6.932;2023-04-09T14:23:34;6.23;;;5.73;;
7074;SDS011;3578;51.568;6.932;2023-04-09T14:26:01;6.90;;;6.33;;
7074;SDS011;3578;51.568;6.932;2023-04-09T14:28:29;6.77;;;6.17;;
7074;SDS011;3578;51.568;6.932;2023-04-09T14:30:56;9.33;;;7.00;;
7074;SDS011;3578;51.568;6.932;2023-04-09T14:33:23;6.90;;;6.30;;
7074;SDS011;3578;51.568;6.932;2023-04-09T14:35:51;6.97;;;6.37;;
7074;SDS011;3578;51.568;6.932;2023-04-09T14:38:19;7.47;;;6.67;;
7074;SDS011;3578;51.568;6.932;2023-04-09T14:40:47;6.80;;;6.20;;
7074;SDS011;3578;51.568;6.932;2023-04-09T14:43:15;7.27;;;6.57;;
7074;SDS011;3578;51.568;6.932;2023-04-09T14:45:42;6.80;;;6.10;;
7074;SDS011;3578;51.568;6.932;2023-04-09T14:48:08;8.53;;;6.47;;
7074;SDS011;3578;51.568;6.932;2023-04-09T14:50:37;6.67;;;6.17;;
7074;SDS011;3578;51.568;6.932;2023-04-09T14:53:05;8.13;;;7.40;;
7074;SDS011;3578;51.568;6.932;2023-04-09T14:55:33;6.73;;;6.13;;
7074;SDS011;3578;51.568;6.932;2023-04-09T14:58:00;13.03;;;7.10;;
7074;SDS011;3578;51.568;6.932;2023-04-09T15:00:28;11.50;;;7.23;;
7074;SDS011;3578;51.568;6.932;2023-04-09T15:02:57;6.77;;;6.07;;
7074;SDS011;3578;51.568;6.932;2023-04-09T15:05:24;9.83;;;7.07;;
7074;SDS011;3578;51.568;6.932;2023-04-09T15:07:51;11.07;;;6.90;;
7074;SDS011;3578;51.568;6.932;2023-04-09T15:10:19;9.40;;;6.90;;
7074;SDS011;3578;51.568;6.932;2023-04-09T15:12:47;6.73;;;6.10;;